Česky Dansk Deutsch English Español Suomi Français Magyar Italiano Nederlands norsk Polski Português svenska Türkçe

 

Het Weer

Kuressaare (Estland)

15:50, 21 augustus 2016 (GMT)

NWNNE
WE
SWSSE
Home            
Kuressaare Kardla Ventspils Parnu Riga Riga International Airport Tallinn Liepaja International Airport Tartu/Ulenurme Visby Flygplats Turku Mariehamn / Aland Island Siauliai Intl./Mil. Helsinki-Malmi Helsinki-Vantaa Palanga Intl. Stockholm / Bromma Stockholm / Arlanda Stockholm/Skavsta Uppsala Tampere / Pirkkala Pori Vasteras / Hasslo

Om een weerknop op uw website of weblog te plaatsen, copieer onderstaande code en plak die in uw pagina. In het eerste vakje staat HTML-code, in het tweede vakje UBB-code.


Add to Google

Details

Wind speed:3 bf, 9 kn, 4.6 m/s, 10.4 miles/h, 16.7 km/h
Wind direction:SSE, 160°
Visibility:Greater than 10000 m, 10 km, 32800 ft, 6.2 miles
Clouds:CAVOC
Temperature:19°C, 66°F
Dew-point:17°C, 63°F
Atmospheric pressure:1015 hPa, 761.3 mmHg, 29.97 inHg, 1.002 atm
Relative humidity:88.2 %
METAR:EEKE 211550Z 16009KT CAVOK 19/17 Q1015

Snelkoppelingen

Actuele weersinformatie van de hele wereld. Voeg locaties toe met het plus (+) symbool. Deze snelkoppelingen kunnen worden toegevoegd aan Google.

Lid van de Technetium groep

website free tracking
StatCounter NetStat W3C Validator

27-10-2020 05:11:48
astro.technetium.be money.technetium.be phote.technetium.be tafeltennistafel.technetium.be www.ligfiets.net